sensor_id;sensor_type;location;lat;lon;timestamp;P1;durP1;ratioP1;P2;durP2;ratioP2
3811;SDS011;1921;49.368;11.068;2023-07-20T00:01:23;74.57;;;54.20;;
3811;SDS011;1921;49.368;11.068;2023-07-20T00:03:48;73.73;;;55.00;;
3811;SDS011;1921;49.368;11.068;2023-07-20T00:06:20;70.23;;;53.83;;
3811;SDS011;1921;49.368;11.068;2023-07-20T00:08:47;76.27;;;55.20;;
3811;SDS011;1921;49.368;11.068;2023-07-20T00:11:13;69.37;;;54.40;;
3811;SDS011;1921;49.368;11.068;2023-07-20T00:13:39;76.10;;;55.03;;
3811;SDS011;1921;49.368;11.068;2023-07-20T00:16:05;73.07;;;54.57;;
3811;SDS011;1921;49.368;11.068;2023-07-20T00:18:30;73.07;;;54.87;;
3811;SDS011;1921;49.368;11.068;2023-07-20T00:20:56;75.13;;;54.57;;
3811;SDS011;1921;49.368;11.068;2023-07-20T00:23:22;71.17;;;53.67;;
3811;SDS011;1921;49.368;11.068;2023-07-20T00:25:48;69.93;;;53.80;;
3811;SDS011;1921;49.368;11.068;2023-07-20T00:28:14;69.20;;;53.37;;
3811;SDS011;1921;49.368;11.068;2023-07-20T00:30:40;75.77;;;55.80;;
3811;SDS011;1921;49.368;11.068;2023-07-20T00:33:10;76.33;;;54.17;;
3811;SDS011;1921;49.368;11.068;2023-07-20T00:35:37;69.60;;;54.37;;
3811;SDS011;1921;49.368;11.068;2023-07-20T00:38:04;72.07;;;54.43;;
3811;SDS011;1921;49.368;11.068;2023-07-20T00:40:37;72.33;;;54.13;;
3811;SDS011;1921;49.368;11.068;2023-07-20T00:43:04;70.03;;;53.97;;
3811;SDS011;1921;49.368;11.068;2023-07-20T00:45:31;69.07;;;54.47;;
3811;SDS011;1921;49.368;11.068;2023-07-20T00:47:58;70.77;;;54.00;;
3811;SDS011;1921;49.368;11.068;2023-07-20T00:50:26;72.30;;;53.97;;
3811;SDS011;1921;49.368;11.068;2023-07-20T00:52:54;72.30;;;54.10;;
3811;SDS011;1921;49.368;11.068;2023-07-20T00:55:21;71.70;;;53.97;;
3811;SDS011;1921;49.368;11.068;2023-07-20T00:57:48;71.20;;;54.50;;
3811;SDS011;1921;49.368;11.068;2023-07-20T01:00:15;71.07;;;55.03;;
3811;SDS011;1921;49.368;11.068;2023-07-20T01:02:41;70.17;;;54.37;;
3811;SDS011;1921;49.368;11.068;2023-07-20T01:05:07;71.50;;;55.10;;
3811;SDS011;1921;49.368;11.068;2023-07-20T01:07:38;71.40;;;54.77;;
3811;SDS011;1921;49.368;11.068;2023-07-20T01:10:29;80.97;;;54.63;;
3811;SDS011;1921;49.368;11.068;2023-07-20T01:13:07;69.83;;;54.40;;
3811;SDS011;1921;49.368;11.068;2023-07-20T01:15:34;71.47;;;55.20;;
3811;SDS011;1921;49.368;11.068;2023-07-20T01:18:00;72.17;;;54.80;;
3811;SDS011;1921;49.368;11.068;2023-07-20T01:20:30;74.97;;;54.60;;
3811;SDS011;1921;49.368;11.068;2023-07-20T01:29:06;72.13;;;54.53;;
3811;SDS011;1921;49.368;11.068;2023-07-20T01:32:07;71.20;;;54.40;;
3811;SDS011;1921;49.368;11.068;2023-07-20T01:34:35;69.87;;;54.63;;
3811;SDS011;1921;49.368;11.068;2023-07-20T01:37:01;72.37;;;54.70;;
3811;SDS011;1921;49.368;11.068;2023-07-20T01:39:28;70.93;;;54.63;;
3811;SDS011;1921;49.368;11.068;2023-07-20T01:41:55;70.63;;;54.87;;
3811;SDS011;1921;49.368;11.068;2023-07-20T01:44:22;71.20;;;55.47;;
3811;SDS011;1921;49.368;11.068;2023-07-20T01:46:48;77.30;;;54.73;;
3811;SDS011;1921;49.368;11.068;2023-07-20T01:49:14;71.40;;;54.90;;
3811;SDS011;1921;49.368;11.068;2023-07-20T01:51:40;70.20;;;53.93;;
3811;SDS011;1921;49.368;11.068;2023-07-20T01:54:06;73.10;;;54.57;;
3811;SDS011;1921;49.368;11.068;2023-07-20T01:56:32;76.13;;;55.13;;
3811;SDS011;1921;49.368;11.068;2023-07-20T01:58:57;76.27;;;54.60;;
3811;SDS011;1921;49.368;11.068;2023-07-20T02:01:23;70.80;;;54.80;;
3811;SDS011;1921;49.368;11.068;2023-07-20T02:03:49;72.30;;;54.97;;
3811;SDS011;1921;49.368;11.068;2023-07-20T02:06:14;71.27;;;54.23;;
3811;SDS011;1921;49.368;11.068;2023-07-20T02:08:40;71.37;;;54.80;;
3811;SDS011;1921;49.368;11.068;2023-07-20T02:11:06;71.43;;;54.57;;
3811;SDS011;1921;49.368;11.068;2023-07-20T02:13:31;71.90;;;55.03;;
3811;SDS011;1921;49.368;11.068;2023-07-20T02:15:57;73.47;;;55.20;;
3811;SDS011;1921;49.368;11.068;2023-07-20T02:18:23;73.40;;;55.97;;
3811;SDS011;1921;49.368;11.068;2023-07-20T02:20:49;69.83;;;53.70;;
3811;SDS011;1921;49.368;11.068;2023-07-20T02:23:14;72.97;;;54.63;;
3811;SDS011;1921;49.368;11.068;2023-07-20T02:25:40;73.37;;;54.77;;
3811;SDS011;1921;49.368;11.068;2023-07-20T02:28:07;74.00;;;54.03;;
3811;SDS011;1921;49.368;11.068;2023-07-20T02:30:34;73.27;;;53.83;;
3811;SDS011;1921;49.368;11.068;2023-07-20T02:33:04;71.00;;;53.43;;
3811;SDS011;1921;49.368;11.068;2023-07-20T02:35:31;74.17;;;55.30;;
3811;SDS011;1921;49.368;11.068;2023-07-20T02:37:57;71.30;;;54.90;;
3811;SDS011;1921;49.368;11.068;2023-07-20T02:40:23;73.03;;;55.23;;
3811;SDS011;1921;49.368;11.068;2023-07-20T02:42:49;76.10;;;56.10;;
3811;SDS011;1921;49.368;11.068;2023-07-20T02:45:14;70.50;;;54.87;;
3811;SDS011;1921;49.368;11.068;2023-07-20T02:47:41;76.00;;;54.93;;
3811;SDS011;1921;49.368;11.068;2023-07-20T02:50:07;75.67;;;55.20;;
3811;SDS011;1921;49.368;11.068;2023-07-20T02:52:33;73.07;;;55.50;;
3811;SDS011;1921;49.368;11.068;2023-07-20T02:54:59;69.27;;;54.40;;
3811;SDS011;1921;49.368;11.068;2023-07-20T02:57:25;67.80;;;53.63;;
3811;SDS011;1921;49.368;11.068;2023-07-20T02:59:52;70.37;;;54.40;;
3811;SDS011;1921;49.368;11.068;2023-07-20T03:02:17;75.53;;;54.33;;
3811;SDS011;1921;49.368;11.068;2023-07-20T03:04:43;78.00;;;54.83;;
3811;SDS011;1921;49.368;11.068;2023-07-20T03:07:09;71.10;;;55.00;;
3811;SDS011;1921;49.368;11.068;2023-07-20T03:09:35;71.57;;;54.83;;
3811;SDS011;1921;49.368;11.068;2023-07-20T03:12:00;67.73;;;54.43;;
3811;SDS011;1921;49.368;11.068;2023-07-20T03:14:28;73.23;;;54.60;;
3811;SDS011;1921;49.368;11.068;2023-07-20T03:16:54;75.40;;;55.47;;
3811;SDS011;1921;49.368;11.068;2023-07-20T03:19:20;74.10;;;55.70;;
3811;SDS011;1921;49.368;11.068;2023-07-20T03:21:46;69.67;;;54.53;;
3811;SDS011;1921;49.368;11.068;2023-07-20T03:24:12;72.17;;;54.93;;
3811;SDS011;1921;49.368;11.068;2023-07-20T03:26:37;75.03;;;54.50;;
3811;SDS011;1921;49.368;11.068;2023-07-20T03:29:03;70.17;;;54.30;;
3811;SDS011;1921;49.368;11.068;2023-07-20T03:31:30;72.23;;;54.87;;
3811;SDS011;1921;49.368;11.068;2023-07-20T03:33:55;71.73;;;54.87;;
3811;SDS011;1921;49.368;11.068;2023-07-20T03:36:21;78.77;;;54.60;;
3811;SDS011;1921;49.368;11.068;2023-07-20T03:38:47;73.03;;;54.50;;
3811;SDS011;1921;49.368;11.068;2023-07-20T03:41:13;70.43;;;55.00;;
3811;SDS011;1921;49.368;11.068;2023-07-20T03:43:41;73.90;;;55.67;;
3811;SDS011;1921;49.368;11.068;2023-07-20T03:46:07;74.70;;;54.73;;
3811;SDS011;1921;49.368;11.068;2023-07-20T03:48:33;79.50;;;55.47;;
3811;SDS011;1921;49.368;11.068;2023-07-20T03:50:59;75.83;;;55.07;;
3811;SDS011;1921;49.368;11.068;2023-07-20T03:53:25;71.67;;;55.37;;
3811;SDS011;1921;49.368;11.068;2023-07-20T03:55:51;78.83;;;55.07;;
3811;SDS011;1921;49.368;11.068;2023-07-20T03:58:18;70.60;;;55.07;;
3811;SDS011;1921;49.368;11.068;2023-07-20T04:00:48;70.50;;;54.80;;
3811;SDS011;1921;49.368;11.068;2023-07-20T04:03:16;74.83;;;55.50;;
3811;SDS011;1921;49.368;11.068;2023-07-20T04:05:45;71.23;;;55.23;;
3811;SDS011;1921;49.368;11.068;2023-07-20T04:08:11;76.30;;;55.53;;
3811;SDS011;1921;49.368;11.068;2023-07-20T04:10:37;70.97;;;54.40;;
3811;SDS011;1921;49.368;11.068;2023-07-20T04:13:04;72.77;;;56.10;;
3811;SDS011;1921;49.368;11.068;2023-07-20T04:15:30;71.93;;;55.50;;
3811;SDS011;1921;49.368;11.068;2023-07-20T04:17:56;72.43;;;55.17;;
3811;SDS011;1921;49.368;11.068;2023-07-20T04:20:25;75.60;;;55.57;;
3811;SDS011;1921;49.368;11.068;2023-07-20T04:22:51;75.63;;;55.00;;
3811;SDS011;1921;49.368;11.068;2023-07-20T04:25:19;71.50;;;55.47;;
3811;SDS011;1921;49.368;11.068;2023-07-20T04:27:45;78.03;;;55.33;;
3811;SDS011;1921;49.368;11.068;2023-07-20T04:30:11;73.90;;;55.10;;
3811;SDS011;1921;49.368;11.068;2023-07-20T04:32:38;77.00;;;54.90;;
3811;SDS011;1921;49.368;11.068;2023-07-20T04:35:09;71.10;;;54.53;;
3811;SDS011;1921;49.368;11.068;2023-07-20T04:37:34;72.63;;;54.07;;
3811;SDS011;1921;49.368;11.068;2023-07-20T04:40:01;69.77;;;54.07;;
3811;SDS011;1921;49.368;11.068;2023-07-20T04:42:28;75.00;;;54.23;;
3811;SDS011;1921;49.368;11.068;2023-07-20T04:44:54;73.50;;;54.93;;
3811;SDS011;1921;49.368;11.068;2023-07-20T04:47:19;69.10;;;54.20;;
3811;SDS011;1921;49.368;11.068;2023-07-20T04:49:45;70.87;;;53.70;;
3811;SDS011;1921;49.368;11.068;2023-07-20T04:52:11;70.27;;;54.10;;
3811;SDS011;1921;49.368;11.068;2023-07-20T04:54:36;71.00;;;54.50;;
3811;SDS011;1921;49.368;11.068;2023-07-20T04:57:02;69.90;;;53.50;;
3811;SDS011;1921;49.368;11.068;2023-07-20T04:59:30;70.17;;;53.83;;
3811;SDS011;1921;49.368;11.068;2023-07-20T05:01:57;71.50;;;54.20;;
3811;SDS011;1921;49.368;11.068;2023-07-20T05:04:23;75.43;;;53.90;;
3811;SDS011;1921;49.368;11.068;2023-07-20T05:06:49;70.50;;;53.90;;
3811;SDS011;1921;49.368;11.068;2023-07-20T05:09:14;72.57;;;54.10;;
3811;SDS011;1921;49.368;11.068;2023-07-20T05:11:40;77.50;;;53.97;;
3811;SDS011;1921;49.368;11.068;2023-07-20T05:14:06;73.60;;;53.63;;
3811;SDS011;1921;49.368;11.068;2023-07-20T05:16:32;71.60;;;53.93;;
3811;SDS011;1921;49.368;11.068;2023-07-20T05:18:58;74.00;;;53.80;;
3811;SDS011;1921;49.368;11.068;2023-07-20T05:21:23;71.00;;;53.43;;
3811;SDS011;1921;49.368;11.068;2023-07-20T05:23:49;74.67;;;54.83;;
3811;SDS011;1921;49.368;11.068;2023-07-20T05:26:15;68.90;;;53.33;;
3811;SDS011;1921;49.368;11.068;2023-07-20T05:28:40;70.73;;;53.40;;
3811;SDS011;1921;49.368;11.068;2023-07-20T05:31:06;72.13;;;53.77;;
3811;SDS011;1921;49.368;11.068;2023-07-20T05:33:35;74.40;;;53.87;;
3811;SDS011;1921;49.368;11.068;2023-07-20T05:36:01;82.70;;;53.60;;
3811;SDS011;1921;49.368;11.068;2023-07-20T05:38:26;71.30;;;53.90;;
3811;SDS011;1921;49.368;11.068;2023-07-20T05:40:52;71.17;;;53.80;;
3811;SDS011;1921;49.368;11.068;2023-07-20T05:43:24;68.80;;;52.70;;
3811;SDS011;1921;49.368;11.068;2023-07-20T05:45:50;71.07;;;53.20;;
3811;SDS011;1921;49.368;11.068;2023-07-20T05:48:16;72.33;;;53.07;;
3811;SDS011;1921;49.368;11.068;2023-07-20T05:50:42;71.80;;;53.40;;
3811;SDS011;1921;49.368;11.068;2023-07-20T05:53:11;68.90;;;53.10;;
3811;SDS011;1921;49.368;11.068;2023-07-20T05:55:37;70.57;;;53.90;;
3811;SDS011;1921;49.368;11.068;2023-07-20T05:58:04;69.97;;;52.87;;
3811;SDS011;1921;49.368;11.068;2023-07-20T06:00:30;70.33;;;52.87;;
3811;SDS011;1921;49.368;11.068;2023-07-20T06:02:55;71.20;;;52.80;;
3811;SDS011;1921;49.368;11.068;2023-07-20T06:05:22;69.00;;;52.37;;
3811;SDS011;1921;49.368;11.068;2023-07-20T06:07:48;69.80;;;52.60;;
3811;SDS011;1921;49.368;11.068;2023-07-20T06:10:14;67.67;;;52.30;;
3811;SDS011;1921;49.368;11.068;2023-07-20T06:12:41;69.47;;;52.50;;
3811;SDS011;1921;49.368;11.068;2023-07-20T06:15:12;74.80;;;52.90;;
3811;SDS011;1921;49.368;11.068;2023-07-20T06:18:00;69.93;;;52.33;;
3811;SDS011;1921;49.368;11.068;2023-07-20T06:20:26;83.73;;;53.03;;
3811;SDS011;1921;49.368;11.068;2023-07-20T06:22:52;67.50;;;52.70;;
3811;SDS011;1921;49.368;11.068;2023-07-20T06:25:18;66.70;;;52.40;;
3811;SDS011;1921;49.368;11.068;2023-07-20T06:27:44;71.10;;;52.87;;
3811;SDS011;1921;49.368;11.068;2023-07-20T06:30:10;70.50;;;52.57;;
3811;SDS011;1921;49.368;11.068;2023-07-20T06:32:37;71.27;;;53.70;;
3811;SDS011;1921;49.368;11.068;2023-07-20T06:35:03;69.93;;;52.70;;
3811;SDS011;1921;49.368;11.068;2023-07-20T06:37:30;72.00;;;53.20;;
3811;SDS011;1921;49.368;11.068;2023-07-20T06:39:55;73.53;;;52.90;;
3811;SDS011;1921;49.368;11.068;2023-07-20T06:42:21;70.80;;;53.00;;
3811;SDS011;1921;49.368;11.068;2023-07-20T06:44:47;70.37;;;52.57;;
3811;SDS011;1921;49.368;11.068;2023-07-20T06:47:13;73.50;;;53.07;;
3811;SDS011;1921;49.368;11.068;2023-07-20T06:49:38;70.83;;;53.60;;
3811;SDS011;1921;49.368;11.068;2023-07-20T06:52:04;73.20;;;52.93;;
3811;SDS011;1921;49.368;11.068;2023-07-20T06:54:30;72.70;;;54.23;;
3811;SDS011;1921;49.368;11.068;2023-07-20T06:56:56;70.20;;;53.23;;
3811;SDS011;1921;49.368;11.068;2023-07-20T06:59:22;70.93;;;53.40;;
3811;SDS011;1921;49.368;11.068;2023-07-20T07:01:49;73.43;;;53.73;;
3811;SDS011;1921;49.368;11.068;2023-07-20T07:04:15;70.63;;;51.93;;
3811;SDS011;1921;49.368;11.068;2023-07-20T07:06:40;72.37;;;53.40;;
3811;SDS011;1921;49.368;11.068;2023-07-20T07:09:06;80.30;;;53.57;;
3811;SDS011;1921;49.368;11.068;2023-07-20T07:11:33;75.83;;;53.70;;
3811;SDS011;1921;49.368;11.068;2023-07-20T07:13:59;71.70;;;53.20;;
3811;SDS011;1921;49.368;11.068;2023-07-20T07:16:25;72.23;;;53.30;;
3811;SDS011;1921;49.368;11.068;2023-07-20T07:18:51;72.80;;;53.93;;
3811;SDS011;1921;49.368;11.068;2023-07-20T07:21:16;79.17;;;53.23;;
3811;SDS011;1921;49.368;11.068;2023-07-20T07:23:42;74.10;;;53.50;;
3811;SDS011;1921;49.368;11.068;2023-07-20T07:26:09;72.20;;;53.83;;
3811;SDS011;1921;49.368;11.068;2023-07-20T07:28:36;72.10;;;53.30;;
3811;SDS011;1921;49.368;11.068;2023-07-20T07:31:05;71.50;;;53.10;;
3811;SDS011;1921;49.368;11.068;2023-07-20T07:33:32;72.73;;;53.70;;
3811;SDS011;1921;49.368;11.068;2023-07-20T07:35:59;72.50;;;53.20;;
3811;SDS011;1921;49.368;11.068;2023-07-20T07:38:25;75.80;;;53.77;;
3811;SDS011;1921;49.368;11.068;2023-07-20T07:40:50;76.53;;;53.90;;
3811;SDS011;1921;49.368;11.068;2023-07-20T07:43:16;74.53;;;53.17;;
3811;SDS011;1921;49.368;11.068;2023-07-20T07:45:42;69.10;;;52.40;;
3811;SDS011;1921;49.368;11.068;2023-07-20T07:48:08;74.37;;;53.50;;
3811;SDS011;1921;49.368;11.068;2023-07-20T07:50:36;71.57;;;53.40;;
3811;SDS011;1921;49.368;11.068;2023-07-20T07:53:03;72.97;;;53.10;;
3811;SDS011;1921;49.368;11.068;2023-07-20T07:55:28;75.13;;;52.80;;
3811;SDS011;1921;49.368;11.068;2023-07-20T07:57:54;71.50;;;53.90;;
3811;SDS011;1921;49.368;11.068;2023-07-20T08:00:22;75.20;;;53.00;;
3811;SDS011;1921;49.368;11.068;2023-07-20T08:02:49;74.70;;;52.47;;
3811;SDS011;1921;49.368;11.068;2023-07-20T08:05:15;72.07;;;53.50;;
3811;SDS011;1921;49.368;11.068;2023-07-20T08:07:43;70.50;;;52.67;;
3811;SDS011;1921;49.368;11.068;2023-07-20T08:10:08;70.40;;;51.90;;
3811;SDS011;1921;49.368;11.068;2023-07-20T08:12:35;70.20;;;52.87;;
3811;SDS011;1921;49.368;11.068;2023-07-20T08:15:00;70.13;;;52.77;;
3811;SDS011;1921;49.368;11.068;2023-07-20T08:17:27;74.13;;;52.77;;
3811;SDS011;1921;49.368;11.068;2023-07-20T08:19:52;69.00;;;51.73;;
3811;SDS011;1921;49.368;11.068;2023-07-20T08:22:18;79.67;;;53.77;;
3811;SDS011;1921;49.368;11.068;2023-07-20T08:24:44;70.90;;;52.97;;
3811;SDS011;1921;49.368;11.068;2023-07-20T08:27:10;70.50;;;52.90;;
3811;SDS011;1921;49.368;11.068;2023-07-20T08:29:36;70.80;;;53.10;;
3811;SDS011;1921;49.368;11.068;2023-07-20T08:32:02;70.70;;;53.00;;
3811;SDS011;1921;49.368;11.068;2023-07-20T08:34:29;69.97;;;52.47;;
3811;SDS011;1921;49.368;11.068;2023-07-20T08:36:56;74.20;;;52.47;;
3811;SDS011;1921;49.368;11.068;2023-07-20T08:39:24;70.10;;;53.00;;
3811;SDS011;1921;49.368;11.068;2023-07-20T08:41:50;69.93;;;52.50;;
3811;SDS011;1921;49.368;11.068;2023-07-20T08:44:19;70.37;;;53.77;;
3811;SDS011;1921;49.368;11.068;2023-07-20T08:46:45;71.50;;;53.27;;
3811;SDS011;1921;49.368;11.068;2023-07-20T08:49:13;70.90;;;52.80;;
3811;SDS011;1921;49.368;11.068;2023-07-20T08:51:43;73.23;;;53.20;;
3811;SDS011;1921;49.368;11.068;2023-07-20T08:54:12;70.37;;;52.33;;
3811;SDS011;1921;49.368;11.068;2023-07-20T08:56:39;69.37;;;52.57;;
3811;SDS011;1921;49.368;11.068;2023-07-20T08:59:10;70.30;;;52.40;;
3811;SDS011;1921;49.368;11.068;2023-07-20T09:01:41;73.10;;;52.67;;
3811;SDS011;1921;49.368;11.068;2023-07-20T09:04:08;76.30;;;52.73;;
3811;SDS011;1921;49.368;11.068;2023-07-20T09:06:34;75.33;;;53.30;;
3811;SDS011;1921;49.368;11.068;2023-07-20T09:09:00;70.43;;;52.70;;
3811;SDS011;1921;49.368;11.068;2023-07-20T09:11:26;71.20;;;53.10;;
3811;SDS011;1921;49.368;11.068;2023-07-20T09:16:50;74.13;;;53.10;;
3811;SDS011;1921;49.368;11.068;2023-07-20T09:19:21;72.00;;;53.20;;
3811;SDS011;1921;49.368;11.068;2023-07-20T09:21:50;71.97;;;53.70;;
3811;SDS011;1921;49.368;11.068;2023-07-20T09:24:17;78.30;;;53.13;;
3811;SDS011;1921;49.368;11.068;2023-07-20T09:26:45;71.90;;;53.40;;
3811;SDS011;1921;49.368;11.068;2023-07-20T09:29:20;71.50;;;52.90;;
3811;SDS011;1921;49.368;11.068;2023-07-20T09:31:58;72.67;;;53.63;;
3811;SDS011;1921;49.368;11.068;2023-07-20T09:34:32;72.40;;;53.87;;
3811;SDS011;1921;49.368;11.068;2023-07-20T09:36:59;75.77;;;53.47;;
3811;SDS011;1921;49.368;11.068;2023-07-20T09:39:25;75.30;;;53.63;;
3811;SDS011;1921;49.368;11.068;2023-07-20T09:41:52;71.90;;;53.60;;
3811;SDS011;1921;49.368;11.068;2023-07-20T09:44:18;71.40;;;52.83;;
3811;SDS011;1921;49.368;11.068;2023-07-20T09:46:45;71.33;;;52.87;;
3811;SDS011;1921;49.368;11.068;2023-07-20T09:49:16;71.30;;;52.70;;
3811;SDS011;1921;49.368;11.068;2023-07-20T09:51:43;74.90;;;53.00;;
3811;SDS011;1921;49.368;11.068;2023-07-20T09:54:13;71.37;;;52.57;;
3811;SDS011;1921;49.368;11.068;2023-07-20T09:56:40;76.60;;;53.73;;
3811;SDS011;1921;49.368;11.068;2023-07-20T09:59:07;74.07;;;53.93;;
3811;SDS011;1921;49.368;11.068;2023-07-20T10:01:34;73.87;;;54.17;;
3811;SDS011;1921;49.368;11.068;2023-07-20T10:04:03;74.00;;;54.83;;
3811;SDS011;1921;49.368;11.068;2023-07-20T10:06:32;72.70;;;53.10;;
3811;SDS011;1921;49.368;11.068;2023-07-20T10:09:03;72.20;;;52.90;;
3811;SDS011;1921;49.368;11.068;2023-07-20T10:11:31;69.40;;;52.70;;
3811;SDS011;1921;49.368;11.068;2023-07-20T10:14:00;70.73;;;52.50;;
3811;SDS011;1921;49.368;11.068;2023-07-20T10:16:43;69.07;;;52.17;;
3811;SDS011;1921;49.368;11.068;2023-07-20T10:19:24;70.77;;;52.17;;
3811;SDS011;1921;49.368;11.068;2023-07-20T10:22:16;71.20;;;52.37;;
3811;SDS011;1921;49.368;11.068;2023-07-20T10:24:49;75.23;;;53.40;;
3811;SDS011;1921;49.368;11.068;2023-07-20T10:27:18;70.13;;;52.67;;
3811;SDS011;1921;49.368;11.068;2023-07-20T10:29:47;70.40;;;53.07;;
3811;SDS011;1921;49.368;11.068;2023-07-20T10:32:13;72.90;;;53.30;;
3811;SDS011;1921;49.368;11.068;2023-07-20T10:34:39;73.47;;;53.30;;
3811;SDS011;1921;49.368;11.068;2023-07-20T10:37:05;73.90;;;54.40;;
3811;SDS011;1921;49.368;11.068;2023-07-20T10:39:31;72.60;;;53.57;;
3811;SDS011;1921;49.368;11.068;2023-07-20T10:42:08;71.53;;;52.83;;
3811;SDS011;1921;49.368;11.068;2023-07-20T10:44:38;69.60;;;52.53;;
3811;SDS011;1921;49.368;11.068;2023-07-20T10:47:09;70.27;;;52.80;;
3811;SDS011;1921;49.368;11.068;2023-07-20T10:49:57;76.33;;;52.60;;
3811;SDS011;1921;49.368;11.068;2023-07-20T10:52:24;71.67;;;52.93;;
3811;SDS011;1921;49.368;11.068;2023-07-20T10:54:50;70.90;;;53.13;;
3811;SDS011;1921;49.368;11.068;2023-07-20T10:57:23;70.77;;;53.10;;
3811;SDS011;1921;49.368;11.068;2023-07-20T11:00:06;71.53;;;53.07;;
3811;SDS011;1921;49.368;11.068;2023-07-20T11:02:43;69.30;;;52.47;;
3811;SDS011;1921;49.368;11.068;2023-07-20T11:05:31;70.63;;;53.10;;
3811;SDS011;1921;49.368;11.068;2023-07-20T11:08:05;71.70;;;52.93;;
3811;SDS011;1921;49.368;11.068;2023-07-20T11:10:35;74.87;;;54.43;;
3811;SDS011;1921;49.368;11.068;2023-07-20T11:15:48;71.20;;;53.27;;
3811;SDS011;1921;49.368;11.068;2023-07-20T11:18:29;70.40;;;53.00;;
3811;SDS011;1921;49.368;11.068;2023-07-20T11:20:56;71.10;;;53.30;;
3811;SDS011;1921;49.368;11.068;2023-07-20T11:23:21;73.30;;;53.90;;
3811;SDS011;1921;49.368;11.068;2023-07-20T11:25:49;73.00;;;53.00;;
3811;SDS011;1921;49.368;11.068;2023-07-20T11:28:15;71.70;;;53.17;;
3811;SDS011;1921;49.368;11.068;2023-07-20T11:30:41;72.40;;;53.43;;
3811;SDS011;1921;49.368;11.068;2023-07-20T11:33:09;72.03;;;53.20;;
3811;SDS011;1921;49.368;11.068;2023-07-20T11:35:36;69.87;;;52.73;;
3811;SDS011;1921;49.368;11.068;2023-07-20T11:38:09;71.97;;;53.30;;
3811;SDS011;1921;49.368;11.068;2023-07-20T11:40:34;70.57;;;53.03;;
3811;SDS011;1921;49.368;11.068;2023-07-20T11:43:00;70.80;;;52.77;;
3811;SDS011;1921;49.368;11.068;2023-07-20T11:45:27;69.90;;;52.70;;
3811;SDS011;1921;49.368;11.068;2023-07-20T11:47:58;71.60;;;53.07;;
3811;SDS011;1921;49.368;11.068;2023-07-20T11:50:25;69.77;;;52.60;;
3811;SDS011;1921;49.368;11.068;2023-07-20T11:52:50;70.40;;;53.10;;
3811;SDS011;1921;49.368;11.068;2023-07-20T11:55:16;72.00;;;53.70;;
3811;SDS011;1921;49.368;11.068;2023-07-20T11:58:00;70.40;;;52.80;;
3811;SDS011;1921;49.368;11.068;2023-07-20T12:00:31;70.90;;;53.30;;
3811;SDS011;1921;49.368;11.068;2023-07-20T12:02:58;70.97;;;53.10;;
3811;SDS011;1921;49.368;11.068;2023-07-20T12:05:24;73.30;;;53.20;;
3811;SDS011;1921;49.368;11.068;2023-07-20T12:07:51;71.90;;;53.30;;
3811;SDS011;1921;49.368;11.068;2023-07-20T12:10:22;72.70;;;52.97;;
3811;SDS011;1921;49.368;11.068;2023-07-20T12:12:53;72.20;;;53.47;;
3811;SDS011;1921;49.368;11.068;2023-07-20T12:17:51;71.13;;;53.17;;
3811;SDS011;1921;49.368;11.068;2023-07-20T12:20:26;73.80;;;53.80;;
3811;SDS011;1921;49.368;11.068;2023-07-20T12:22:56;71.30;;;53.40;;
3811;SDS011;1921;49.368;11.068;2023-07-20T12:25:36;72.67;;;53.90;;
3811;SDS011;1921;49.368;11.068;2023-07-20T12:28:16;72.17;;;53.80;;
3811;SDS011;1921;49.368;11.068;2023-07-20T12:30:44;73.33;;;54.10;;
3811;SDS011;1921;49.368;11.068;2023-07-20T12:33:11;73.93;;;54.17;;
3811;SDS011;1921;49.368;11.068;2023-07-20T12:35:40;74.32;;;54.50;;
3811;SDS011;1921;49.368;11.068;2023-07-20T12:38:08;73.05;;;54.38;;
3811;SDS011;1921;49.368;11.068;2023-07-20T12:40:34;73.65;;;54.13;;
3811;SDS011;1921;49.368;11.068;2023-07-20T12:43:01;72.82;;;54.25;;
3811;SDS011;1921;49.368;11.068;2023-07-20T12:45:27;76.93;;;54.67;;
3811;SDS011;1921;49.368;11.068;2023-07-20T12:47:52;73.93;;;54.38;;
3811;SDS011;1921;49.368;11.068;2023-07-20T12:50:18;73.25;;;54.35;;
3811;SDS011;1921;49.368;11.068;2023-07-20T12:52:44;73.13;;;54.38;;
3811;SDS011;1921;49.368;11.068;2023-07-20T12:55:10;73.95;;;54.53;;
3811;SDS011;1921;49.368;11.068;2023-07-20T12:57:36;72.60;;;54.17;;
3811;SDS011;1921;49.368;11.068;2023-07-20T13:00:05;87.05;;;57.08;;
3811;SDS011;1921;49.368;11.068;2023-07-20T13:02:37;71.77;;;53.60;;
3811;SDS011;1921;49.368;11.068;2023-07-20T13:05:03;73.30;;;53.83;;
3811;SDS011;1921;49.368;11.068;2023-07-20T13:07:39;71.93;;;53.43;;
3811;SDS011;1921;49.368;11.068;2023-07-20T13:10:06;72.20;;;53.70;;
3811;SDS011;1921;49.368;11.068;2023-07-20T13:12:33;70.70;;;53.47;;
3811;SDS011;1921;49.368;11.068;2023-07-20T13:15:03;70.97;;;53.27;;
3811;SDS011;1921;49.368;11.068;2023-07-20T13:17:34;73.60;;;53.40;;
3811;SDS011;1921;49.368;11.068;2023-07-20T13:20:02;72.50;;;53.83;;
3811;SDS011;1921;49.368;11.068;2023-07-20T13:22:32;72.60;;;54.20;;
3811;SDS011;1921;49.368;11.068;2023-07-20T13:24:59;71.83;;;53.80;;
3811;SDS011;1921;49.368;11.068;2023-07-20T13:27:25;71.33;;;53.50;;
3811;SDS011;1921;49.368;11.068;2023-07-20T13:29:51;80.53;;;53.60;;
3811;SDS011;1921;49.368;11.068;2023-07-20T13:32:17;74.10;;;54.10;;
3811;SDS011;1921;49.368;11.068;2023-07-20T13:34:46;75.13;;;53.83;;
3811;SDS011;1921;49.368;11.068;2023-07-20T13:37:13;72.00;;;53.33;;
3811;SDS011;1921;49.368;11.068;2023-07-20T13:39:39;71.93;;;53.20;;
3811;SDS011;1921;49.368;11.068;2023-07-20T13:42:05;73.53;;;53.73;;
3811;SDS011;1921;49.368;11.068;2023-07-20T13:44:31;74.00;;;53.73;;
3811;SDS011;1921;49.368;11.068;2023-07-20T13:46:57;73.80;;;53.70;;
3811;SDS011;1921;49.368;11.068;2023-07-20T13:49:23;74.22;;;53.90;;
3811;SDS011;1921;49.368;11.068;2023-07-20T13:51:49;72.57;;;53.92;;
3811;SDS011;1921;49.368;11.068;2023-07-20T13:54:15;72.82;;;54.28;;
3811;SDS011;1921;49.368;11.068;2023-07-20T13:56:41;72.80;;;54.30;;
3811;SDS011;1921;49.368;11.068;2023-07-20T13:59:06;72.65;;;54.03;;
3811;SDS011;1921;49.368;11.068;2023-07-20T14:01:32;74.57;;;54.53;;
3811;SDS011;1921;49.368;11.068;2023-07-20T14:03:59;73.65;;;54.33;;
3811;SDS011;1921;49.368;11.068;2023-07-20T14:06:26;72.03;;;53.97;;
3811;SDS011;1921;49.368;11.068;2023-07-20T14:08:55;77.60;;;54.53;;
3811;SDS011;1921;49.368;11.068;2023-07-20T14:11:22;73.78;;;54.45;;
3811;SDS011;1921;49.368;11.068;2023-07-20T14:13:48;73.35;;;54.20;;
3811;SDS011;1921;49.368;11.068;2023-07-20T14:16:20;76.47;;;54.50;;
3811;SDS011;1921;49.368;11.068;2023-07-20T14:18:46;73.28;;;54.30;;
3811;SDS011;1921;49.368;11.068;2023-07-20T14:21:14;72.03;;;54.28;;
3811;SDS011;1921;49.368;11.068;2023-07-20T14:23:48;73.10;;;54.47;;
3811;SDS011;1921;49.368;11.068;2023-07-20T14:26:16;73.78;;;54.15;;
3811;SDS011;1921;49.368;11.068;2023-07-20T14:28:42;74.00;;;54.17;;
3811;SDS011;1921;49.368;11.068;2023-07-20T14:31:08;72.20;;;53.90;;
3811;SDS011;1921;49.368;11.068;2023-07-20T14:33:34;78.17;;;54.30;;
3811;SDS011;1921;49.368;11.068;2023-07-20T14:36:00;72.10;;;54.00;;
3811;SDS011;1921;49.368;11.068;2023-07-20T14:38:28;72.77;;;53.77;;
3811;SDS011;1921;49.368;11.068;2023-07-20T14:40:56;75.38;;;54.17;;
3811;SDS011;1921;49.368;11.068;2023-07-20T14:43:22;72.93;;;54.17;;
3811;SDS011;1921;49.368;11.068;2023-07-20T14:45:48;73.60;;;54.42;;
3811;SDS011;1921;49.368;11.068;2023-07-20T14:48:13;74.97;;;54.25;;
3811;SDS011;1921;49.368;11.068;2023-07-20T14:50:39;75.20;;;54.67;;